Time;durP1;ratioP1;P1;durP2;ratioP2;P2;SDS_P1;SDS_P2;PMS_P1;PMS_P2;Temp;Humidity;BMP_temperature;BMP_pressure;BME280_temperature;BME280_humidity;BME280_pressure;Samples;Min_cycle;Max_cycle;Signal;HPM_P1;HPM_P2
2021/03/30 00:01:58;;;;;;;11.05;4.28;;;12.90;80.00;;;;;;5047232;28;20045;-71
2021/03/30 00:04:25;;;;;;;8.27;3.55;;;12.90;79.00;;;;;;5014629;28;20120;-71
2021/03/30 00:06:51;;;;;;;13.32;4.65;;;12.80;79.30;;;;;;5015849;28;20041;-71
2021/03/30 00:09:18;;;;;;;13.10;4.03;;;12.80;79.00;;;;;;5019246;28;20052;-71
2021/03/30 00:11:44;;;;;;;11.32;4.40;;;12.80;78.00;;;;;;5016641;28;20440;-71
2021/03/30 00:14:11;;;;;;;14.65;4.50;;;12.80;77.30;;;;;;5013631;28;20046;-71
2021/03/30 00:16:37;;;;;;;12.75;4.28;;;12.90;77.50;;;;;;5021355;28;20030;-71
2021/03/30 00:19:04;;;;;;;12.15;4.65;;;12.80;76.80;;;;;;5023185;28;20074;-71
2021/03/30 00:21:31;;;;;;;14.77;5.15;;;12.80;76.20;;;;;;5018025;28;20064;-71
2021/03/30 00:23:58;;;;;;;10.38;5.00;;;12.80;75.40;;;;;;5031996;28;20481;-71
2021/03/30 00:26:24;;;;;;;10.23;4.28;;;12.80;75.20;;;;;;5023832;28;20064;-71
2021/03/30 00:28:51;;;;;;;10.95;3.88;;;12.70;75.80;;;;;;5038650;28;20045;-71
2021/03/30 00:31:17;;;;;;;13.25;4.47;;;12.60;78.00;;;;;;5022200;28;20049;-71
2021/03/30 00:33:44;;;;;;;12.38;4.80;;;12.50;78.20;;;;;;5016196;28;20053;-71
2021/03/30 00:36:11;;;;;;;14.13;4.57;;;12.60;77.90;;;;;;5012055;28;20519;-70
2021/03/30 00:38:37;;;;;;;11.85;4.38;;;12.60;77.50;;;;;;5011086;28;20085;-70
2021/03/30 00:41:05;;;;;;;12.20;3.95;;;12.60;75.90;;;;;;5021411;28;20052;-71
2021/03/30 00:43:31;;;;;;;11.85;4.43;;;12.60;76.60;;;;;;5047147;28;20041;-70
2021/03/30 00:45:58;;;;;;;11.45;4.05;;;12.60;76.50;;;;;;5023465;28;20608;-70
2021/03/30 00:48:28;;;;;;;12.82;4.35;;;12.70;77.10;;;;;;5026666;28;20045;-70
2021/03/30 00:50:57;;;;;;;;;;;12.70;76.40;;;;;;5037616;28;20042;-71
2021/03/30 00:53:42;;;;;;;10.43;4.07;;;12.50;77.40;;;;;;5014833;28;20368;-71
2021/03/30 00:56:20;;;;;;;10.05;4.00;;;12.50;77.10;;;;;;5018081;28;20057;-71
2021/03/30 00:58:48;;;;;;;9.60;3.97;;;12.60;76.70;;;;;;5018005;28;20042;-70
2021/03/30 01:01:15;;;;;;;12.85;4.35;;;12.50;77.70;;;;;;5002468;28;20172;-71
2021/03/30 01:03:41;;;;;;;13.07;4.88;;;12.30;79.50;;;;;;5026290;28;20478;-71
2021/03/30 01:06:08;;;;;;;14.15;4.03;;;12.30;78.60;;;;;;5003758;28;20056;-70
2021/03/30 01:08:46;;;;;;;10.57;4.43;;;12.30;78.20;;;;;;5020271;28;20052;-71
2021/03/30 01:11:30;;;;;;;14.52;4.65;;;12.40;78.10;;;;;;5019220;28;20049;-71
2021/03/30 01:14:04;;;;;;;10.75;4.53;;;12.30;78.60;;;;;;5022995;28;20108;-70
2021/03/30 01:16:38;;;;;;;9.48;4.05;;;12.30;79.10;;;;;;5025377;28;20056;-70
2021/03/30 01:19:34;;;;;;;18.88;4.68;;;12.30;78.40;;;;;;5018218;28;20045;-71
2021/03/30 01:22:21;;;;;;;15.57;5.47;;;12.40;79.10;;;;;;5030578;28;20117;-71
2021/03/30 01:24:53;;;;;;;11.35;5.30;;;12.30;79.60;;;;;;5016152;28;20492;-70
2021/03/30 01:27:38;;;;;;;10.07;4.13;;;12.30;79.00;;;;;;5028070;28;20401;-71
2021/03/30 01:30:06;;;;;;;15.18;5.28;;;12.40;78.40;;;;;;5025651;28;20515;-71
2021/03/30 01:32:45;;;;;;;14.45;5.40;;;12.40;78.40;;;;;;5017672;28;20152;-70
2021/03/30 01:35:19;;;;;;;10.07;5.05;;;12.30;78.40;;;;;;5014840;28;20473;-71
2021/03/30 01:37:47;;;;;;;13.70;5.18;;;12.40;78.60;;;;;;5025126;28;20057;-71
2021/03/30 01:40:20;;;;;;;11.68;4.70;;;12.40;80.80;;;;;;4997063;28;20058;-71
2021/03/30 01:42:48;;;;;;;17.20;5.15;;;12.30;81.10;;;;;;5025149;28;20120;-71
2021/03/30 01:45:19;;;;;;;15.20;5.22;;;12.40;82.90;;;;;;5017992;28;20046;-70
2021/03/30 01:47:47;;;;;;;13.05;6.18;;;12.40;80.70;;;;;;5018480;28;20045;-70
2021/03/30 01:50:15;;;;;;;14.65;5.38;;;12.40;81.20;;;;;;5028253;28;20045;-71
2021/03/30 01:52:43;;;;;;;22.05;5.95;;;12.40;81.80;;;;;;5025850;28;20509;-70
2021/03/30 01:55:13;;;;;;;13.40;5.85;;;12.30;83.50;;;;;;5033475;28;20052;-71
2021/03/30 01:57:44;;;;;;;15.57;5.93;;;12.20;85.00;;;;;;5034271;28;20068;-71
2021/03/30 02:00:11;;;;;;;16.90;6.28;;;12.20;85.60;;;;;;5036804;28;20063;-71
2021/03/30 02:02:46;;;;;;;19.70;6.13;;;12.10;87.80;;;;;;5019027;28;20045;-71
2021/03/30 02:05:15;;;;;;;;;;;12.20;84.30;;;;;;5014834;28;20030;-71
2021/03/30 02:07:42;;;;;;;15.15;4.97;;;12.10;87.60;;;;;;5015409;28;19925;-71
2021/03/30 02:10:18;;;;;;;15.20;6.13;;;12.20;85.90;;;;;;5003463;28;20042;-71
2021/03/30 02:12:45;;;;;;;18.13;5.68;;;12.20;87.00;;;;;;5015671;28;20096;-70
2021/03/30 02:15:14;;;;;;;11.90;5.20;;;12.30;85.50;;;;;;5011870;28;20053;-70
2021/03/30 02:18:04;;;;;;;12.65;5.70;;;12.20;88.10;;;;;;5013519;28;20046;-71
2021/03/30 02:20:44;;;;;;;12.15;5.50;;;12.20;87.60;;;;;;5056870;28;20042;-71
2021/03/30 02:23:15;;;;;;;14.27;5.53;;;12.20;86.00;;;;;;5018409;28;20049;-70
2021/03/30 02:25:49;;;;;;;12.95;5.40;;;12.20;87.70;;;;;;5017059;28;20049;-71
2021/03/30 02:28:19;;;;;;;13.82;4.65;;;12.20;86.60;;;;;;4998257;28;20038;-70
2021/03/30 02:30:48;;;;;;;11.07;5.53;;;12.20;87.40;;;;;;5020335;28;20050;-71
2021/03/30 02:33:20;;;;;;;13.75;5.18;;;12.20;88.60;;;;;;5015537;28;20046;-71
2021/03/30 02:35:49;;;;;;;16.67;6.45;;;12.30;89.20;;;;;;5026155;28;20077;-71
2021/03/30 02:38:17;;;;;;;12.55;5.20;;;12.30;87.50;;;;;;5000711;28;20413;-71
2021/03/30 02:40:46;;;;;;;12.48;5.55;;;12.30;86.20;;;;;;5021404;28;20478;-71
2021/03/30 02:43:14;;;;;;;11.80;5.03;;;12.30;85.30;;;;;;5011292;28;20544;-71
2021/03/30 02:45:45;;;;;;;12.02;4.32;;;12.30;85.60;;;;;;5024124;28;20038;-71
2021/03/30 02:48:12;;;;;;;12.32;4.70;;;12.30;85.90;;;;;;5030780;28;20049;-70
2021/03/30 02:50:40;;;;;;;10.00;4.22;;;12.30;86.70;;;;;;5016396;28;20080;-71
2021/03/30 02:53:08;;;;;;;10.90;4.63;;;12.30;87.20;;;;;;5021902;28;20098;-70
2021/03/30 02:55:36;;;;;;;12.65;4.63;;;12.30;87.60;;;;;;5031123;28;20049;-71
2021/03/30 02:58:06;;;;;;;10.60;4.75;;;12.40;87.30;;;;;;5027050;28;20240;-71
2021/03/30 03:00:33;;;;;;;15.25;5.38;;;12.30;87.50;;;;;;5019041;28;20448;-71
2021/03/30 03:03:04;;;;;;;13.63;4.47;;;12.30;88.40;;;;;;5040311;28;20048;-71
2021/03/30 03:05:31;;;;;;;12.57;5.28;;;12.40;87.20;;;;;;5022291;28;20051;-72
2021/03/30 03:07:57;;;;;;;11.82;4.50;;;12.40;86.00;;;;;;5022862;28;20045;-71
2021/03/30 03:10:24;;;;;;;11.82;4.97;;;12.30;85.50;;;;;;5023872;28;20068;-71
2021/03/30 03:12:53;;;;;;;12.80;4.68;;;12.30;85.20;;;;;;5024594;28;20041;-71
2021/03/30 03:15:22;;;;;;;12.43;5.07;;;12.30;86.90;;;;;;4995750;28;20041;-71
2021/03/30 03:17:50;;;;;;;9.93;4.95;;;12.30;85.20;;;;;;5022187;28;20049;-70
2021/03/30 03:20:17;;;;;;;11.63;4.65;;;12.30;86.50;;;;;;5016799;28;20049;-70
2021/03/30 03:22:45;;;;;;;12.32;5.03;;;12.30;87.60;;;;;;5017423;28;20033;-70
2021/03/30 03:25:14;;;;;;;10.60;4.00;;;12.10;86.60;;;;;;5019719;28;20065;-70
2021/03/30 03:27:41;;;;;;;9.90;4.10;;;12.10;88.50;;;;;;5024892;28;20041;-70
2021/03/30 03:30:10;;;;;;;11.88;4.65;;;12.10;86.40;;;;;;5054384;28;20563;-71
2021/03/30 03:32:37;;;;;;;11.60;5.35;;;12.00;86.10;;;;;;5025099;28;20045;-71
2021/03/30 03:35:04;;;;;;;12.15;4.80;;;12.00;87.00;;;;;;5016455;28;20045;-71
2021/03/30 03:37:39;;;;;;;12.07;4.40;;;11.90;88.60;;;;;;5024734;28;20111;-70
2021/03/30 03:40:06;;;;;;;10.93;4.00;;;12.00;86.90;;;;;;5014734;28;20042;-71
2021/03/30 03:42:35;;;;;;;10.10;5.05;;;12.10;87.10;;;;;;5021335;28;20694;-71
2021/03/30 03:45:02;;;;;;;8.60;3.95;;;12.00;86.20;;;;;;5019699;28;20057;-71
2021/03/30 03:47:28;;;;;;;13.98;5.47;;;11.90;88.90;;;;;;5022596;28;20030;-71
2021/03/30 03:49:55;;;;;;;11.02;4.60;;;12.00;89.10;;;;;;5040160;28;20054;-70
2021/03/30 03:52:22;;;;;;;11.68;4.30;;;12.00;88.60;;;;;;5025088;28;20041;-70
2021/03/30 03:54:50;;;;;;;12.95;4.53;;;12.00;88.40;;;;;;5025159;28;20405;-70
2021/03/30 03:57:21;;;;;;;13.75;4.75;;;12.00;87.90;;;;;;5010800;28;20038;-71
2021/03/30 03:59:49;;;;;;;18.88;5.07;;;12.10;87.20;;;;;;5028547;28;20053;-71
2021/03/30 04:02:33;;;;;;;11.73;4.22;;;12.10;85.80;;;;;;5025062;28;20065;-70
2021/03/30 04:05:11;;;;;;;11.43;4.55;;;12.20;85.50;;;;;;5019006;28;20046;-71
2021/03/30 04:07:53;;;;;;;10.25;4.70;;;12.20;84.00;;;;;;5013425;28;20409;-70
2021/03/30 04:10:22;;;;;;;9.48;4.45;;;12.20;84.60;;;;;;5014421;28;20049;-71
2021/03/30 04:12:49;;;;;;;8.93;4.80;;;12.20;84.20;;;;;;5018199;28;20049;-71
2021/03/30 04:15:18;;;;;;;12.45;4.05;;;12.20;84.10;;;;;;5020736;28;20520;-71
2021/03/30 04:17:45;;;;;;;10.05;4.75;;;12.10;84.50;;;;;;5019193;28;20049;-71
2021/03/30 04:20:14;;;;;;;14.63;4.85;;;12.20;83.70;;;;;;5025071;28;20512;-71
2021/03/30 04:22:44;;;;;;;10.10;4.45;;;12.20;83.80;;;;;;5020918;28;20042;-71
2021/03/30 04:25:11;;;;;;;11.20;4.30;;;12.20;83.60;;;;;;5013656;28;20058;-71
2021/03/30 04:27:38;;;;;;;11.40;4.53;;;12.20;83.80;;;;;;5049087;28;20042;-70
2021/03/30 04:30:05;;;;;;;9.13;3.83;;;12.10;83.50;;;;;;5019392;28;20046;-71
2021/03/30 04:32:32;;;;;;;11.73;4.97;;;12.10;84.20;;;;;;5015379;28;20053;-71
2021/03/30 04:34:58;;;;;;;10.15;3.92;;;12.10;84.70;;;;;;5055262;28;20358;-71
2021/03/30 04:37:25;;;;;;;12.48;5.00;;;12.10;85.10;;;;;;5016794;28;20056;-71
2021/03/30 04:39:51;;;;;;;10.88;4.95;;;12.10;85.40;;;;;;5022857;28;20057;-70
2021/03/30 04:42:18;;;;;;;9.82;4.13;;;12.10;85.00;;;;;;5017661;28;20046;-70
2021/03/30 04:44:44;;;;;;;12.32;4.47;;;12.10;85.30;;;;;;5018661;28;20049;-71
2021/03/30 04:47:14;;;;;;;9.38;4.75;;;12.10;86.00;;;;;;5013370;28;20133;-71
2021/03/30 04:49:40;;;;;;;16.77;4.43;;;12.00;86.10;;;;;;5049419;28;20563;-70
2021/03/30 04:52:07;;;;;;;12.82;4.78;;;12.00;84.80;;;;;;5020980;28;20037;-70
2021/03/30 04:54:34;;;;;;;11.32;4.20;;;12.00;86.40;;;;;;5025517;28;20041;-71
2021/03/30 04:57:00;;;;;;;13.10;4.40;;;12.10;85.70;;;;;;5019107;28;20041;-71
2021/03/30 04:59:27;;;;;;;13.50;4.53;;;12.10;85.00;;;;;;5022311;28;20042;-71
2021/03/30 05:01:53;;;;;;;18.67;5.18;;;12.10;84.70;;;;;;5008150;28;20531;-70
2021/03/30 05:04:20;;;;;;;9.60;4.05;;;12.10;84.30;;;;;;5033319;28;20044;-71
2021/03/30 05:06:46;;;;;;;20.83;5.22;;;12.10;84.60;;;;;;5051505;28;20045;-71
2021/03/30 05:09:13;;;;;;;26.08;10.85;;;12.20;84.30;;;;;;5026454;28;20046;-71
2021/03/30 05:11:39;;;;;;;21.48;10.30;;;12.30;84.40;;;;;;5028560;28;20134;-71
2021/03/30 05:14:06;;;;;;;21.83;8.25;;;12.40;84.40;;;;;;5020615;28;20037;-70
2021/03/30 05:16:33;;;;;;;15.70;7.07;;;12.40;83.40;;;;;;5027088;28;20075;-71
2021/03/30 05:18:59;;;;;;;20.55;6.75;;;12.40;82.60;;;;;;5029970;28;20107;-71
2021/03/30 05:21:26;;;;;;;18.73;7.40;;;12.40;82.80;;;;;;5023365;28;20045;-70
2021/03/30 05:23:53;;;;;;;24.70;6.13;;;12.40;82.60;;;;;;5025868;28;20436;-71
2021/03/30 05:26:19;;;;;;;13.98;5.85;;;12.50;82.50;;;;;;5013507;28;20042;-71
2021/03/30 05:28:46;;;;;;;13.25;5.93;;;12.40;83.00;;;;;;5015997;28;20041;-71
2021/03/30 05:31:12;;;;;;;16.05;5.13;;;12.40;83.70;;;;;;5025715;28;20407;-71
2021/03/30 05:33:39;;;;;;;10.63;4.07;;;12.40;83.00;;;;;;5027349;28;20033;-71
2021/03/30 05:36:06;;;;;;;15.20;5.05;;;12.50;83.80;;;;;;5023875;28;20050;-70
2021/03/30 05:38:32;;;;;;;14.52;4.28;;;12.60;82.50;;;;;;5025548;28;23262;-71
2021/03/30 05:41:02;;;;;;;13.70;4.55;;;12.70;82.60;;;;;;5024621;28;20049;-71
2021/03/30 05:43:30;;;;;;;11.93;3.72;;;12.80;83.80;;;;;;5034838;28;20053;-71
2021/03/30 05:46:00;;;;;;;13.38;4.63;;;12.80;82.80;;;;;;5012407;28;20053;-71
2021/03/30 05:48:29;;;;;;;13.02;4.28;;;12.80;82.50;;;;;;5026757;28;20537;-71
2021/03/30 05:50:56;;;;;;;13.68;5.10;;;12.80;81.60;;;;;;5014943;28;20362;-70
2021/03/30 05:53:25;;;;;;;22.38;5.28;;;12.70;81.50;;;;;;5019552;28;20064;-70
2021/03/30 05:56:03;;;;;;;11.73;4.53;;;12.70;81.70;;;;;;5025244;28;20455;-71
2021/03/30 05:58:32;;;;;;;14.00;4.35;;;12.80;82.10;;;;;;5038965;28;20038;-71
2021/03/30 06:01:05;;;;;;;13.32;4.63;;;12.90;82.10;;;;;;5022919;28;20084;-71
2021/03/30 06:03:33;;;;;;;16.70;6.00;;;13.10;82.10;;;;;;5013315;28;20042;-70
2021/03/30 06:06:01;;;;;;;18.17;6.93;;;13.20;81.30;;;;;;5017418;28;20053;-73
2021/03/30 06:08:29;;;;;;;11.07;5.32;;;13.30;79.60;;;;;;5035620;28;20425;-73
2021/03/30 06:10:59;;;;;;;19.80;6.30;;;13.50;78.00;;;;;;5033807;28;20042;-73
2021/03/30 06:13:56;;;;;;;25.65;9.38;;;13.50;78.40;;;;;;5039374;28;20054;-73
2021/03/30 06:16:33;;;;;;;14.88;6.10;;;13.70;78.10;;;;;;5022125;28;20058;-74
2021/03/30 06:19:02;;;;;;;15.10;5.75;;;13.70;77.30;;;;;;5027132;28;20047;-73
2021/03/30 06:21:29;;;;;;;15.60;6.50;;;13.70;77.00;;;;;;5018586;28;20640;-72
2021/03/30 06:23:58;;;;;;;15.45;6.63;;;13.70;76.80;;;;;;5019154;28;20045;-73
2021/03/30 06:26:28;;;;;;;17.08;5.88;;;13.80;76.90;;;;;;5025272;28;20037;-73
2021/03/30 06:28:54;;;;;;;16.23;5.28;;;14.00;75.70;;;;;;5020481;28;20049;-73
2021/03/30 06:31:21;;;;;;;12.63;4.90;;;14.10;75.70;;;;;;5020727;28;20045;-73
2021/03/30 06:33:54;;;;;;;11.13;5.25;;;14.20;75.00;;;;;;5022276;28;20057;-73
2021/03/30 06:36:28;;;;;;;11.90;4.93;;;14.20;74.80;;;;;;5025357;28;20504;-73
2021/03/30 06:39:07;;;;;;;18.15;5.35;;;14.30;74.80;;;;;;5024812;28;20547;-74
2021/03/30 06:41:46;;;;;;;18.35;5.47;;;14.40;74.30;;;;;;5025379;28;20042;-73
2021/03/30 06:44:28;;;;;;;12.10;5.40;;;14.40;75.20;;;;;;5028055;28;20041;-73
2021/03/30 06:47:04;;;;;;;20.30;6.70;;;14.50;75.50;;;;;;5017327;28;20073;-73
2021/03/30 06:49:33;;;;;;;12.13;5.32;;;14.50;75.20;;;;;;5032502;28;20519;-73
2021/03/30 06:52:15;;;;;;;15.55;6.53;;;14.60;74.80;;;;;;5015164;28;20052;-73
2021/03/30 06:55:04;;;;;;;19.60;7.25;;;14.60;75.30;;;;;;5022321;28;20038;-73
2021/03/30 06:57:46;;;;;;;22.63;6.43;;;14.50;75.70;;;;;;5027458;28;20378;-73
2021/03/30 07:00:26;;;;;;;19.53;6.20;;;14.50;74.20;;;;;;5028296;28;20487;-73
2021/03/30 07:02:55;;;;;;;16.88;5.85;;;14.50;74.90;;;;;;5020486;28;20344;-73
2021/03/30 07:05:30;;;;;;;17.90;6.05;;;14.50;74.50;;;;;;5027414;28;20354;-73
2021/03/30 07:07:59;;;;;;;15.13;6.53;;;14.40;75.40;;;;;;5018091;28;20046;-74
2021/03/30 07:10:36;;;;;;;19.80;6.57;;;14.50;75.80;;;;;;5022023;28;20095;-73
2021/03/30 07:13:04;;;;;;;17.03;8.03;;;14.50;75.80;;;;;;5017615;28;20042;-73
2021/03/30 07:15:31;;;;;;;18.25;6.78;;;14.60;76.80;;;;;;5014091;28;20033;-73
2021/03/30 07:18:03;;;;;;;22.10;6.95;;;14.60;76.10;;;;;;5048519;28;20053;-72
2021/03/30 07:20:35;;;;;;;16.27;5.55;;;14.60;75.10;;;;;;5019905;28;20044;-73
2021/03/30 07:23:06;;;;;;;18.50;7.78;;;14.60;74.70;;;;;;5024876;28;20050;-73
2021/03/30 07:25:38;;;;;;;18.95;6.78;;;14.70;74.20;;;;;;5026112;28;20049;-72
2021/03/30 07:28:11;;;;;;;15.17;6.50;;;14.70;74.90;;;;;;5022998;28;20497;-73
2021/03/30 07:30:45;;;;;;;13.20;6.25;;;14.80;75.70;;;;;;4997568;28;20492;-73
2021/03/30 07:33:32;;;;;;;15.23;6.13;;;14.90;75.00;;;;;;5026609;28;20124;-74
2021/03/30 07:36:01;;;;;;;11.63;5.60;;;14.90;75.80;;;;;;5010876;28;20054;-73
2021/03/30 07:38:39;;;;;;;13.18;5.18;;;15.00;76.20;;;;;;5017284;28;20103;-74
2021/03/30 07:41:06;;;;;;;15.30;6.47;;;15.00;76.00;;;;;;5041672;28;20190;-73
2021/03/30 07:43:33;;;;;;;13.32;5.53;;;15.10;75.70;;;;;;5016484;28;20045;-73
2021/03/30 07:46:02;;;;;;;11.18;5.50;;;15.10;75.70;;;;;;5026211;28;20047;-73
2021/03/30 07:48:32;;;;;;;10.50;5.45;;;15.30;76.60;;;;;;5011449;28;20061;-73
2021/03/30 07:51:03;;;;;;;18.33;5.65;;;15.40;77.10;;;;;;5050824;28;20053;-73
2021/03/30 07:53:48;;;;;;;16.90;5.75;;;15.60;76.20;;;;;;5010338;28;20057;-73
2021/03/30 07:56:23;;;;;;;10.07;5.30;;;15.80;75.70;;;;;;5021765;28;20054;-73
2021/03/30 07:58:52;;;;;;;13.48;5.55;;;15.90;74.00;;;;;;5019411;28;20046;-73
2021/03/30 08:01:25;;;;;;;9.80;5.10;;;15.90;73.00;;;;;;5025991;28;20050;-73
2021/03/30 08:03:53;;;;;;;9.73;4.45;;;15.90;72.80;;;;;;5018677;28;20038;-73
2021/03/30 08:06:49;;;;;;;10.90;5.40;;;15.90;72.10;;;;;;5018199;28;20055;-73
2021/03/30 08:09:18;;;;;;;11.88;5.90;;;15.90;73.10;;;;;;5054760;28;20046;-73
2021/03/30 08:11:46;;;;;;;10.10;4.82;;;15.90;72.30;;;;;;5041603;28;20459;-74
2021/03/30 08:14:18;;;;;;;9.15;4.78;;;15.80;71.80;;;;;;5029111;28;20053;-73
2021/03/30 08:17:02;;;;;;;10.40;4.63;;;16.00;73.50;;;;;;5025947;28;20122;-73
2021/03/30 08:19:29;;;;;;;11.05;5.45;;;16.00;72.30;;;;;;5018602;28;20037;-73
2021/03/30 08:22:07;;;;;;;8.52;4.13;;;16.10;72.20;;;;;;5028333;28;20045;-73
2021/03/30 08:24:46;;;;;;;11.45;3.83;;;16.30;72.50;;;;;;5026086;28;20052;-73
2021/03/30 08:27:31;;;;;;;7.40;3.58;;;16.40;71.10;;;;;;5024315;28;20103;-73
2021/03/30 08:30:21;;;;;;;10.75;4.35;;;16.60;71.90;;;;;;5028853;28;20061;-73
2021/03/30 08:32:49;;;;;;;9.27;4.57;;;16.70;71.80;;;;;;5008596;28;20054;-73
2021/03/30 08:35:31;;;;;;;8.27;4.55;;;16.80;71.80;;;;;;4992860;28;20055;-73
2021/03/30 08:37:59;;;;;;;;;;;17.00;70.70;;;;;;4994294;28;20073;-73
2021/03/30 08:40:34;;;;;;;7.65;3.47;;;17.20;69.40;;;;;;4992837;28;19921;-73
2021/03/30 08:43:19;;;;;;;9.68;4.50;;;17.20;67.60;;;;;;4999046;28;20042;-73
2021/03/30 08:46:09;;;;;;;7.68;4.22;;;17.10;68.90;;;;;;5005416;28;20132;-74
2021/03/30 08:48:52;;;;;;;11.90;4.72;;;17.20;68.80;;;;;;5013034;28;20057;-74
2021/03/30 08:51:22;;;;;;;11.10;3.60;;;17.30;68.50;;;;;;5026926;28;20168;-73
2021/03/30 08:53:49;;;;;;;9.57;4.10;;;17.40;67.20;;;;;;5017553;28;20057;-74
2021/03/30 08:56:26;;;;;;;8.18;4.05;;;17.30;65.70;;;;;;4994963;28;20056;-73
2021/03/30 08:58:56;;;;;;;7.55;3.83;;;17.40;67.20;;;;;;4994782;28;20050;-73
2021/03/30 09:01:23;;;;;;;10.35;3.92;;;17.60;66.70;;;;;;5013487;28;20050;-73
2021/03/30 09:03:53;;;;;;;10.23;4.15;;;17.70;66.20;;;;;;4973220;28;20638;-73
2021/03/30 09:06:33;;;;;;;10.75;4.70;;;17.90;66.30;;;;;;4988096;28;20045;-73
2021/03/30 09:09:02;;;;;;;9.05;3.97;;;17.90;65.00;;;;;;5002227;28;20058;-72
2021/03/30 09:11:31;;;;;;;9.15;3.88;;;18.10;65.60;;;;;;5020595;28;20051;-72
2021/03/30 09:13:57;;;;;;;9.10;4.05;;;18.10;64.00;;;;;;5011721;28;20107;-72
2021/03/30 09:16:24;;;;;;;9.40;3.85;;;17.90;64.80;;;;;;5035886;28;20140;-73
2021/03/30 09:18:52;;;;;;;10.02;3.58;;;18.00;65.40;;;;;;5027053;28;20050;-73
2021/03/30 09:21:25;;;;;;;15.48;4.35;;;18.00;64.30;;;;;;5028636;28;20041;-72
2021/03/30 09:23:57;;;;;;;9.85;3.35;;;18.00;63.80;;;;;;5027412;28;20474;-72
2021/03/30 09:26:31;;;;;;;10.30;4.10;;;17.90;64.50;;;;;;5012289;28;20037;-73
2021/03/30 09:28:57;;;;;;;9.80;3.47;;;17.90;64.10;;;;;;5025892;28;20125;-73
2021/03/30 09:31:24;;;;;;;8.85;3.83;;;17.60;64.60;;;;;;5026215;28;20051;-72
2021/03/30 09:33:54;;;;;;;6.03;3.53;;;17.40;65.40;;;;;;5021730;28;20048;-73
2021/03/30 09:36:20;;;;;;;7.10;2.97;;;17.40;65.70;;;;;;5022655;28;20045;-71
2021/03/30 09:38:52;;;;;;;11.30;3.83;;;17.40;65.20;;;;;;5021828;28;20140;-73
2021/03/30 09:41:42;;;;;;;9.20;3.45;;;17.40;64.80;;;;;;5003561;28;20050;-69
2021/03/30 09:44:10;;;;;;;10.55;3.92;;;17.40;66.10;;;;;;5021719;28;20046;-69
2021/03/30 09:46:47;;;;;;;7.05;3.72;;;17.40;65.40;;;;;;5014309;28;20077;-70
2021/03/30 09:49:17;;;;;;;7.40;3.78;;;17.50;67.00;;;;;;5025536;28;20052;-70
2021/03/30 09:51:44;;;;;;;9.13;4.60;;;17.70;67.00;;;;;;5025559;28;20044;-70
2021/03/30 09:54:22;;;;;;;6.82;3.22;;;17.80;66.10;;;;;;5019772;28;20054;-73
2021/03/30 09:57:00;;;;;;;6.93;3.55;;;17.90;65.70;;;;;;5018597;28;20117;-73
2021/03/30 09:59:28;;;;;;;8.88;4.97;;;18.00;65.10;;;;;;5026286;28;20053;-73
2021/03/30 10:01:56;;;;;;;8.07;3.38;;;18.10;65.00;;;;;;5028369;28;20053;-72
2021/03/30 10:04:25;;;;;;;9.57;3.70;;;18.20;64.60;;;;;;5014876;28;20044;-72
2021/03/30 10:06:52;;;;;;;8.85;4.10;;;18.10;63.90;;;;;;5052613;28;20045;-72
2021/03/30 10:09:20;;;;;;;9.95;4.03;;;18.20;64.10;;;;;;5026282;28;20060;-72
2021/03/30 10:11:49;;;;;;;11.00;3.55;;;18.30;63.50;;;;;;5031101;28;20396;-72
2021/03/30 10:14:26;;;;;;;8.60;3.58;;;18.40;63.40;;;;;;5028849;28;20043;-72
2021/03/30 10:16:55;;;;;;;10.02;4.18;;;18.50;63.50;;;;;;5016693;28;20046;-72
2021/03/30 10:19:22;;;;;;;10.45;3.13;;;18.70;62.70;;;;;;5022755;28;20037;-72
2021/03/30 10:21:54;;;;;;;6.88;3.08;;;18.90;62.80;;;;;;5028144;28;20046;-72
2021/03/30 10:24:22;;;;;;;6.00;3.60;;;19.00;62.60;;;;;;5017807;28;20058;-72
2021/03/30 10:27:05;;;;;;;7.13;3.20;;;19.10;61.80;;;;;;5013652;28;20103;-72
2021/03/30 10:29:41;;;;;;;6.95;2.90;;;18.90;62.00;;;;;;5027898;28;20038;-72
2021/03/30 10:32:16;;;;;;;9.60;3.47;;;18.90;61.60;;;;;;5028788;28;20042;-73
2021/03/30 10:34:43;;;;;;;7.53;3.47;;;18.90;61.80;;;;;;5026032;28;20055;-72
2021/03/30 10:37:13;;;;;;;10.98;3.40;;;18.70;62.40;;;;;;5019028;28;20108;-72
2021/03/30 10:39:43;;;;;;;8.88;3.33;;;18.80;63.10;;;;;;5012639;28;20612;-72
2021/03/30 10:42:13;;;;;;;6.57;3.13;;;18.90;63.50;;;;;;5019080;28;20045;-72
2021/03/30 10:44:43;;;;;;;7.85;3.42;;;18.90;63.20;;;;;;5012059;28;20604;-73
2021/03/30 10:47:16;;;;;;;8.23;3.47;;;19.00;62.70;;;;;;5025355;28;20142;-73
2021/03/30 10:49:43;;;;;;;;;;;19.10;62.10;;;;;;5027334;28;20052;-73
2021/03/30 10:52:15;;;;;;;6.18;2.03;;;19.10;62.40;;;;;;5025625;28;19925;-73
2021/03/30 10:54:42;;;;;;;;;;;19.00;61.90;;;;;;5029221;28;20061;-73
2021/03/30 10:57:14;;;;;;;4.85;3.05;;;19.10;61.80;;;;;;5018518;28;19925;-73
2021/03/30 10:59:43;;;;;;;7.72;3.28;;;19.20;61.30;;;;;;5026099;28;20497;-73
2021/03/30 11:02:11;;;;;;;8.18;3.28;;;19.50;60.80;;;;;;5029585;28;20042;-73
2021/03/30 11:04:41;;;;;;;7.78;2.83;;;19.50;59.70;;;;;;5016706;28;20045;-73
2021/03/30 11:07:09;;;;;;;9.07;2.97;;;19.80;59.70;;;;;;5024762;28;20040;-73
2021/03/30 11:09:37;;;;;;;10.68;2.75;;;19.90;58.60;;;;;;5011799;28;20038;-73
2021/03/30 11:12:04;;;;;;;7.85;3.28;;;20.10;57.60;;;;;;5017911;28;20042;-73
2021/03/30 11:14:31;;;;;;;11.18;2.78;;;20.10;58.20;;;;;;5010598;28;20568;-73
2021/03/30 11:16:57;;;;;;;8.32;3.03;;;20.40;58.20;;;;;;5015861;28;20042;-73
2021/03/30 11:19:25;;;;;;;10.88;3.42;;;20.60;57.20;;;;;;5023435;28;20140;-73
2021/03/30 11:21:53;;;;;;;8.85;2.78;;;20.40;56.80;;;;;;5011762;28;20041;-73
2021/03/30 11:24:21;;;;;;;10.00;3.22;;;20.40;57.10;;;;;;5029498;28;20059;-73
2021/03/30 11:26:50;;;;;;;7.60;3.13;;;20.50;57.00;;;;;;5025701;28;20045;-73
2021/03/30 11:29:24;;;;;;;6.88;3.50;;;20.20;57.40;;;;;;5011702;28;20046;-69
2021/03/30 11:34:33;;;;;;;6.28;3.35;;;20.00;56.80;;;;;;5056665;28;20408;-73
2021/03/30 11:37:17;;;;;;;8.80;3.28;;;19.70;57.70;;;;;;5021636;28;20045;-70
2021/03/30 11:39:44;;;;;;;6.05;3.22;;;19.10;59.00;;;;;;5023401;28;20179;-68
2021/03/30 11:42:11;;;;;;;7.20;3.53;;;19.10;60.00;;;;;;5023178;28;20049;-73
2021/03/30 11:44:37;;;;;;;12.75;3.88;;;18.90;60.20;;;;;;5016358;28;20046;-72
2021/03/30 11:47:05;;;;;;;10.75;4.10;;;18.80;59.90;;;;;;5027365;28;20576;-73
2021/03/30 11:49:33;;;;;;;9.65;3.75;;;18.70;60.90;;;;;;5009293;28;20132;-74
2021/03/30 11:52:09;;;;;;;7.10;3.72;;;18.60;63.00;;;;;;5008240;28;20082;-73
2021/03/30 11:54:42;;;;;;;8.30;3.50;;;18.50;62.80;;;;;;5023871;28;20046;-73
2021/03/30 11:57:08;;;;;;;7.03;3.03;;;18.30;66.00;;;;;;5015401;28;20052;-74
2021/03/30 11:59:35;;;;;;;5.72;3.17;;;18.30;64.60;;;;;;5012238;28;20137;-74
2021/03/30 12:02:02;;;;;;;8.48;2.92;;;18.30;65.00;;;;;;5018071;28;20044;-73
2021/03/30 12:04:28;;;;;;;8.30;3.25;;;18.30;65.90;;;;;;5027529;28;20393;-72
2021/03/30 12:06:56;;;;;;;6.90;2.83;;;18.30;67.30;;;;;;5016777;28;20052;-72
2021/03/30 12:09:22;;;;;;;9.13;3.00;;;18.40;65.90;;;;;;5021589;28;20038;-73
2021/03/30 12:11:49;;;;;;;5.55;3.00;;;18.40;64.80;;;;;;5021186;28;20038;-73
2021/03/30 12:14:16;;;;;;;6.63;3.08;;;18.30;66.00;;;;;;5021416;28;20076;-70
2021/03/30 12:16:46;;;;;;;6.78;2.15;;;18.30;65.60;;;;;;5026588;28;20763;-73
2021/03/30 12:19:18;;;;;;;6.63;2.17;;;18.20;65.80;;;;;;5012344;28;20396;-73
2021/03/30 12:21:45;;;;;;;3.67;2.17;;;18.20;64.10;;;;;;5019556;28;20041;-73
2021/03/30 12:24:12;;;;;;;5.65;2.88;;;18.10;66.20;;;;;;5023720;28;20034;-71
2021/03/30 12:26:39;;;;;;;5.75;3.03;;;18.20;68.10;;;;;;5005901;28;20059;-70
2021/03/30 12:29:06;;;;;;;6.57;2.58;;;18.10;72.70;;;;;;5015988;28;20489;-70
2021/03/30 12:31:33;;;;;;;9.10;2.97;;;18.10;72.20;;;;;;5018153;28;20049;-72
2021/03/30 12:34:00;;;;;;;5.80;2.70;;;17.90;72.30;;;;;;5023646;28;20775;-69
2021/03/30 12:36:27;;;;;;;7.30;2.70;;;18.00;74.80;;;;;;5011135;28;20052;-69
2021/03/30 12:38:54;;;;;;;6.50;2.95;;;17.90;75.00;;;;;;5023799;28;20058;-72
2021/03/30 12:41:21;;;;;;;7.63;2.90;;;17.80;74.10;;;;;;5021370;28;20401;-72
2021/03/30 12:43:48;;;;;;;7.80;3.50;;;17.80;73.90;;;;;;5022529;28;20372;-72
2021/03/30 12:46:14;;;;;;;8.35;3.13;;;17.70;75.70;;;;;;5022058;28;20042;-72
2021/03/30 12:48:41;;;;;;;7.90;3.53;;;17.60;74.90;;;;;;5040470;28;20060;-73
2021/03/30 12:51:08;;;;;;;11.75;3.25;;;17.70;75.20;;;;;;5013657;28;20046;-72
2021/03/30 12:53:35;;;;;;;7.60;3.78;;;17.70;76.50;;;;;;5018287;28;20077;-73
2021/03/30 12:56:02;;;;;;;9.30;3.65;;;17.70;77.50;;;;;;5019859;28;20056;-72
2021/03/30 12:58:29;;;;;;;7.82;3.38;;;17.60;76.90;;;;;;5022575;28;20049;-72
2021/03/30 13:00:56;;;;;;;8.05;3.95;;;17.70;77.40;;;;;;5007499;28;20063;-73